TBPT2: Truscott Brine Lake

Data processed at Sat Nov 22 23:21:24 2014 Central Standard Time


All information presented herein is the property of the government of the United States of America and may be revised or deleted at any time without prior notice.
Dissemination of this information without the expressed written consent of the Public Affairs Office, Tulsa District U.S. Army Corps of Engineers is strictly prohibited.
These data are gathered electronically and, as presented, have not undergone any form of quality control. These data are not guaranteed to be valid or correct.
Go to home page.
Go to station list.
Go to station map.

Downstream station:

Previous Day
Next Day
Current Day

Display graphics.
Display DCP transmissions.


    
    SHEF ID:       TBPT2     Truscott Brine Lake
    STATION TYPE:  BRINE STORAGE
    
                   PRECIP PRECIP(2) ELEVATION   STORAGE  AIR-TEMP  WIND-DIRWIND-SPEED REL-HUMID SOLAR-RAD   VOLTAGE  BAT-LOAD
                   INCHES    INCHES      FEET      ACFT     DEG-F   DEGREES       MPH   PERCENT      W/M2     VOLTS     VOLTS
                     GOES      GOES      GOES      GOES      GOES      GOES      GOES      GOES      GOES      GOES      GOES
       (Cen)
    11/22 01:00      0.00      0.00   1460.56     23692     45.50    186.30      0.45     90.55      0.00     12.88     12.60
    11/22 02:00      0.00      0.00   1460.58     23719     45.28      5.90      0.30     96.65      0.00     12.86     12.54
    11/22 03:00      0.02      0.04   1460.57     23705     45.07    318.80      4.27     99.22      1.00     12.84     12.54
    11/22 04:00      0.04      0.04   1460.58     23719     44.96    330.30      6.92     99.28      1.00     12.81     12.42
    11/22 05:00      0.01      0.01   1460.56     23692     44.08    261.50      4.43     99.40      2.00     12.80     12.36
    11/22 06:00      0.00      0.00   1460.57     23705     44.19      5.30      5.12     99.58      2.00     12.79     12.36
    11/22 07:00      0.05      0.06   1460.62     23773     44.31    307.80      5.15     99.72      2.00     12.78     12.36
    11/22 08:00      0.01      0.00   1460.57     23705     45.18    297.40      3.42     99.65      3.00     12.82     12.36
    11/22 09:00      0.00      0.00   1460.57     23705     46.83    291.10      3.19     99.54     28.00     13.49     12.83
    11/22 10:00      0.00      0.00   1460.57     23705     47.70      3.90      2.01     99.58    169.00     12.89     12.65
    11/22 11:00      0.07      0.08   1460.59     23732     47.80    341.80      1.74     99.71     20.00     12.77     12.36
    11/22 12:00      0.04      0.05   1460.61     23760     48.58    283.90     10.26     99.65      8.00     13.41     12.48
    11/22 13:00      0.01      0.00   1460.62     23773     53.74    211.30     18.00     93.97    159.00     13.09     12.89
    11/22 14:00      0.01      0.02   1460.59     23732     53.31    266.90      9.13     99.58     35.00     12.85     12.77
    11/22 15:00      0.03      0.03   1460.60     23746     53.74     54.10      1.86     99.34     12.00     12.77     12.07
    11/22 16:00      0.02      0.02   1460.60     23746     54.41    131.10     16.65     93.05      8.00     12.78     12.36
    11/22 17:00      0.00      0.00   1460.64     23800     52.65    102.20     11.91     99.58     21.00     12.76     12.36
    11/22 18:00      0.00      0.00   1460.62     23773     52.54      0.40      7.68     99.52      6.00     12.76     12.36
    11/22 19:00      0.00      0.00   1460.60     23746     50.56    180.30      2.55     99.58      2.00     12.76     12.42
    11/22 20:00      0.00      0.00   1460.63     23787     51.44    175.50     11.00     98.91      2.00     12.75     12.42
    11/22 21:00      0.00      0.00   1460.60     23746     50.68    178.90      7.33     99.47      2.00     12.75     12.42
    11/22 22:00      0.00      0.00   1460.62     23773     51.22    193.80      7.02     99.58      2.00     12.74     12.42
    11/22 23:00      0.00      0.00   1460.61     23760     50.67    180.20     11.85     99.65      3.00     12.74     12.42
    11/23 00:00      ----      ----      ----      ----      ----      ----      ----      ----      ----      ----      ----